Race profile

Valencia Trinidad Alfonso
Valencia ESP
15 Nov 2015
Road
Marathon
Record quality course
Men: -140.67 sec (-3.33 sec/km)
Women: -158.13 sec (-3.74 sec/km)
Men: 719
Women: 513
Total: 14080
Men: 12350
Women: 1730
$48,420
Valencia

Results (men)

Finished Time Flags Given name Surname Alternate name Citizenship Birth date Prize money Actions
1 2:06:13 John Mwangangi Nzau KEN 01 Nov 1990 $8,615
2 2:06:33 Mathew Kipkoech Kisorio KEN 16 May 1989 $4,310
3 2:07:07 Felix Kipchirchir Kandie KEN 10 Apr 1987 $2,155
4 2:08:38 Abraha Gebresadik Adhana ETH 16 Jul 1992 $1,615
5 2:08:47 Philemon Rono Cherop KEN 08 Feb 1991 $1,075
6 2:09:55 Laban Wanjiku Mutai KEN 1985 $810
7 2:10:09 Samuel Kigen Korir KEN 29 Sep 1985 $540
8 2:10:09 Geoffrey Ronoh KEN 29 Nov 1982 $325
9 2:10:13 Hassane Ahouchar MAR 1975 $215
10 2:14:02 Abdelhadi El Hachimi BEL 15 Dec 1974 $110
11 2:14:12 Ivan Babarika UKR 11 Nov 1982
12 2:15:09 Jose Moreira POR 05 May 1980
13 2:15:11 Edwin Kiyeng Kemboi KEN 1993
14 2:15:14 Valerio deSouza Fabiano BRA 13 Jul 1988
15 2:15:33 Dawit Woldesilasie Hagos ETH 19 May 1991
16 2:15:39 Christopher Zablocki USA 21 Jul 1988
17 2:15:39 Mariano-Nicolas Mastromarino ARG 15 Sep 1982
18 2:16:37 Miguel-Angel Barzola ARG 14 May 1982 $2,690
19 2:17:54 Pablo Lopez Sanchez Rey ESP 16 Sep 1977 $1,345
20 2:18:48 Afework Mesfin Woldetensae ETH 12 Oct 1992
21 2:19:43 Derlis-Ramon Ayala Sanchez PAR 07 Jan 1990
22 2:22:00 Felix Pont Chafer ESP 16 Nov 1982 $810
24 2:23:39 Alessandro Brancato ITA 27 Jun 1988
25 2:24:10 Luis-Alberto Orta Millan VEN 15 Jan 1989
26 2:25:03 Erik Anfält SWE 1976
28 2:26:30 Renars Roze LAT 13 May 1986
29 2:26:41 Antonio-Jesus Nuñez Sanchez ESP 04 Sep 1980
35 2:27:55 Raivo Alla EST 10 Sep 1982
37 2:29:17 Alexandre Rognon FRA 11 May 1980
46 2:30:50 Thomas Payn ENG 18 Oct 1979

Results (women)

Finished Time Flags Given name Surname Alternate name Citizenship Birth date Prize money Actions
1 2:26:57 Beata Naigambo Nandajala NAM 11 Mar 1980 $8,615
2 2:27:34 Nancy Kiprop Chepkosgei KEN 06 Jul 1979 $4,310
3 2:29:21 Janet Rono Jelegat KEN 08 Dec 1988 $2,155
4 2:30:44 Sabrina Mockenhaupt GER 06 Dec 1980 $1,615
5 2:30:50 Fatna Maraoui ITA 10 Jul 1977 $1,075
6 2:31:25 Vanessa Fernandes POR 14 Sep 1985 $810
7 2:32:29 Laila Soufyane ITA 04 Aug 1983 $540
8 2:33:01 Emily Chemutai Ngetich KEN 1984 $325
9 2:33:43 Christine Kalmer RSA 10 Feb 1986 $215
10 2:34:20 Zeddy Limo Cherop KEN 1987 $110
11 2:34:42 Marta Esteban Poveda ESP 06 Nov 1982 $2,690
12 2:36:56 Afera Godfe Berthe ETH 25 Sep 1991
13 2:37:28 Remalda Kergyte Daukurdiene LTU 25 Aug 1985
14 2:38:57 Annelie Johansson SWE 21 Dec 1978
15 2:39:28 Rosa-Liliana Godoy ARG 19 Mar 1982
16 2:40:23 Daneja Grandovec SLO 02 Jul 1984
17 2:40:30 Lily Luik EST 14 Oct 1985
18 2:40:36 Lucia Kimani Mwihaki BIH 21 Jun 1980
19 2:40:40 Marily dosSantos BRA 05 Feb 1978
20 2:40:43 Vera-Monica Nunes Santos POR 27 Jan 1980
21 2:41:19 Sladjana Perunovic Pejovic MNE 26 Mar 1984
22 2:42:43 Barbara Sanchez IRL 29 Mar 1981
23 2:43:26 Samantha Amend ENG 24 May 1979
24 2:44:50 Sandra-Gabriela Amarillo ARG 15 Mar 1984
25 2:45:52 Kaisa Kukk EST 27 Jul 1984
26 2:47:09 Karen VanProeyen BEL 18 Nov 1984
27 2:47:45 Jo Coates ENG 13 Oct 1975
28 2:47:48 Maria-Mihaela Prundus Botezan ROM 21 Nov 1976
29 2:47:51 Tina Cacilo SLO
30 2:52:04 Mari Boikov EST 12 Apr 1988
31 2:52:33 Denise Robson CAN 19 Nov 1968
32 2:53:20 Federica Proietti ITA 03 Oct 1987
34 3:00:48 Rachel Cave ENG 05 Mar 1989
37 3:01:45 Cristina Gonzalez Garcia ESP 19 Feb 1984 $1,345
38 3:03:37 Aleksandra Fortin SLO 05 Apr 1972
48 3:05:56 Helena Javornik SLO 26 Mar 1966
DQ DQ Malika Asahssah MAR 24 Sep 1982